Home > Products > Valid Products > MTR

000
SAUS43 KDTX 262152
MTRP58
METAR KP58 262151Z AUTO 28007KT 03/M04 A2980 RMK AO1 SLP101
T00331039





000
SAUS43 KDTX 262152
MTRP58
METAR KP58 262151Z AUTO 28007KT 03/M04 A2980 RMK AO1 SLP101
T00331039





000
SAUS43 KDTX 262052
MTRP58
METAR KP58 262051Z AUTO VRB05KT 03/M04 A2979 RMK AO1 SLP094
T00331044 55005





000
SAUS43 KDTX 261954
MTRP58
METAR KP58 261951Z AUTO 27010G18KT 240V300 04/M04 A2978 RMK AO1
SLP093 T00391044





000
SAUS43 KDTX 261954
MTRP58
METAR KP58 261951Z AUTO 27010G18KT 240V300 04/M04 A2978 RMK AO1
SLP093 T00391044





000
SAUS43 KDTX 261852
MTRP58
METAR KP58 261851Z AUTO 28008G14KT 04/M04 A2979 RMK AO1 SLP095
T00391039





000
SAUS43 KDTX 261852
MTRP58
METAR KP58 261851Z AUTO 28008G14KT 04/M04 A2979 RMK AO1 SLP095
T00391039





000
SAUS43 KDTX 261754
MTRP58
METAR KP58 261751Z AUTO 30010KT 04/M03 A2980 RMK AO1 SLP099
T00441028 10044 20017 56008





000
SAUS43 KDTX 261652
MTRP58
METAR KP58 261651Z AUTO 28011G18KT 04/M02 A2981 RMK AO1 SLP100
T00391022





000
SAUS43 KDTX 261553
MTRP58
METAR KP58 261551Z AUTO 28008G15KT 04/M02 A2981 RMK AO1 SLP102
T00391017





000
SAUS43 KDTX 261453
MTRP58
METAR KP58 261451Z AUTO 28008KT 04/M01 A2983 RMK AO1 SLP107
T00391011 50001





000
SAUS43 KDTX 261453
MTRP58
METAR KP58 261451Z AUTO 28008KT 04/M01 A2983 RMK AO1 SLP107
T00391011 50001





000
SAUS43 KDTX 261353
MTRP58
METAR KP58 261351Z AUTO 25005KT 03/M02 A2983 RMK AO1 SLP109
T00281017 $





000
SAUS43 KDTX 261353
MTRP58
METAR KP58 261351Z AUTO 25005KT 03/M02 A2983 RMK AO1 SLP109
T00281017 $





000
SAUS43 KDTX 261253
MTRP58
METAR KP58 261251Z AUTO 24005KT 02/M02 A2983 RMK AO1 SLP110
T00221017 $





000
SAUS43 KDTX 261253
MTRP58
METAR KP58 261251Z AUTO 24005KT 02/M02 A2983 RMK AO1 SLP110
T00221017 $





000
SAUS43 KDTX 261152
MTRP58
METAR KP58 261151Z AUTO 25004KT 02/M02 A2982 RMK AO1 SLP107 70022
T00171017 10033 20017 56014 $





000
SAUS43 KDTX 261152
MTRP58
METAR KP58 261151Z AUTO 25004KT 02/M02 A2982 RMK AO1 SLP107 70022
T00171017 10033 20017 56014 $





000
SAUS43 KDTX 261052
MTRP58
METAR KP58 261051Z AUTO 24005KT 02/M02 A2983 RMK AO1 SLP109
T00171017 $





000
SAUS43 KDTX 260954
MTRP58
METAR KP58 260951Z AUTO 24005KT 02/M01 A2985 RMK AO1 SLP113
T00221011 $





000
SAUS43 KDTX 260854
MTRP58
METAR KP58 260851Z AUTO 24005KT 02/M01 A2986 RMK AO1 SLP119
T00221011 58012 $





000
SAUS43 KDTX 260854
MTRP58
METAR KP58 260851Z AUTO 24005KT 02/M01 A2986 RMK AO1 SLP119
T00221011 58012 $





000
SAUS43 KDTX 260753
MTRP58
METAR KP58 260751Z AUTO 23007KT 180V260 03/M01 A2990 RMK AO1 SLP131
T00281006 $





000
SAUS43 KDTX 260753
MTRP58
METAR KP58 260751Z AUTO 23007KT 180V260 03/M01 A2990 RMK AO1 SLP131
T00281006 $





000
SAUS43 KDTX 260653
MTRP58
METAR KP58 260651Z AUTO 23007KT 03/M01 A2990 RMK AO1 SLP131
T00331006 $





000
SAUS43 KDTX 260653
MTRP58
METAR KP58 260651Z AUTO 23007KT 03/M01 A2990 RMK AO1 SLP131
T00331006 $





000
SAUS43 KDTX 260554
MTRP58
METAR KP58 260551Z AUTO 25005KT 03/M01 A2990 RMK AO1 SLP133
T00331006 10039 20033 53007





000
SAUS43 KDTX 260554
MTRP58
METAR KP58 260551Z AUTO 25005KT 03/M01 A2990 RMK AO1 SLP133
T00331006 10039 20033 53007





000
SAUS43 KDTX 260452
MTRP58
METAR KP58 260451Z AUTO 24007KT 190V260 03/M01 A2989 RMK AO1 SLP130
T00331006 400611028





000
SAUS43 KDTX 260452
MTRP58
METAR KP58 260451Z AUTO 24007KT 190V260 03/M01 A2989 RMK AO1 SLP130
T00331006 400611028





000
SAUS43 KDTX 260353
MTRP58
METAR KP58 260351Z AUTO 24010KT 04/M01 A2989 RMK AO1 SLP129
T00391011





000
SAUS43 KDTX 260252
MTRP58
METAR KP58 260251Z AUTO VRB06G16KT 04/M01 A2988 RMK AO1 SLP126
T00391006 50013





000
SAUS43 KDTX 260154
MTRP58
METAR KP58 260151Z AUTO 25008G18KT 220V300 03/M01 A2989 RMK AO1
SLP132 T00331006





000
SAUS43 KDTX 260154
MTRP58
METAR KP58 260151Z AUTO 25008G18KT 220V300 03/M01 A2989 RMK AO1
SLP132 T00331006





000
SAUS43 KDTX 260054
MTRP58
METAR KP58 260051Z AUTO 26008G20KT 230V290 04/00 A2987 RMK AO1 PK
WND 24030/0028 SLP122 T00390000





000
SAUS43 KDTX 260054
MTRP58
METAR KP58 260051Z AUTO 26008G20KT 230V290 04/00 A2987 RMK AO1 PK
WND 24030/0028 SLP122 T00390000





000
SAUS43 KDTX 252354
MTRP58
METAR KP58 252351Z AUTO 25013G27KT 200V290 04/00 A2984 RMK AO1 PK
WND 23030/2306 SLP114 T00390000 10061 20033 53025





000
SAUS43 KDTX 252354
MTRP58
METAR KP58 252351Z AUTO 25013G27KT 200V290 04/00 A2984 RMK AO1 PK
WND 23030/2306 SLP114 T00390000 10061 20033 53025





000
SAUS43 KDTX 252252
MTRP58
METAR KP58 252251Z AUTO 26014G27KT 240V310 06/01 A2980 RMK AO1 PK
WND 24030/2157 SLP100 T00560011





000
SAUS43 KDTX 252152
MTRP58
METAR KP58 252151Z AUTO 25012G23KT 06/02 A2977 RMK AO1 PK WND
25032/2112 SLP090 T00610017





000
SAUS43 KDTX 252054
MTRP58
METAR KP58 252051Z AUTO 25014G29KT 210V290 06/02 A2977 RMK AO1 PK
WND 23029/2043 SLP088 T00610022 53009





000
SAUS43 KDTX 251952
MTRP58
METAR KP58 251951Z AUTO 24012G22KT 06/03 A2975 RMK AO1 SLP083
T00560028





000
SAUS43 KDTX 251854
MTRP58
METAR KP58 251851Z AUTO 24011G20KT 05/03 A2974 RMK AO1 SLP079
T00500028





000
SAUS43 KDTX 251854
MTRP58
METAR KP58 251851Z AUTO 24011G20KT 05/03 A2974 RMK AO1 SLP079
T00500028





000
SAUS43 KDTX 251752
MTRP58
METAR KP58 251751Z AUTO VRB06KT 03/02 A2974 RMK AO1 SLP080 60022
T00330022 10033 21011 56022





000
SAUS43 KDTX 251752
MTRP58
METAR KP58 251751Z AUTO VRB06KT 03/02 A2974 RMK AO1 SLP080 60022
T00330022 10033 21011 56022





000
SAUS43 KDTX 251654
MTRP58
METAR KP58 251651Z AUTO 17009KT 02/01 A2974 RMK AO1 SLP082 P0001
T00170006





000
SAUS43 KDTX 251553
MTRP58
METAR KP58 251551Z AUTO 16013G22KT 01/M01 A2975 RMK AO1 SLP086 P0006
T00111006





000
SAUS43 KDTX 251452
MTRP58
METAR KP58 251451Z AUTO 16013G23KT 01/M01 A2980 RMK AO1 SLP103 P0010
60015 T00061011 56040





000
SAUS43 KDTX 251452
MTRP58
METAR KP58 251451Z AUTO 16013G23KT 01/M01 A2980 RMK AO1 SLP103 P0010
60015 T00061011 56040





000
SAUS43 KDTX 251356 COR
MTRP58
METAR KP58 251351Z AUTO 14015G22KT 00/M03 A2983 RMK AO1 PK WND
13026/1339 SLP114 P0005 T00001028





000
SAUS43 KDTX 251353 COR
MTRP58
METAR KP58 251351Z AUTO 14015G22KT 00/M03 A2983 RMK AO1 PK WND
13026/1339 SLP114 P0005 T00001028





000
SAUS43 KDTX 251253
MTRP58
METAR KP58 251251Z AUTO 15016G25KT 00/M04 A2987 RMK AO1 SLP128
T00001044





000
SAUS43 KDTX 251253
MTRP58
METAR KP58 251251Z AUTO 15016G25KT 00/M04 A2987 RMK AO1 SLP128
T00001044





000
SAUS43 KDTX 251154
MTRP58
METAR KP58 251151Z AUTO 14017G24KT M01/M05 A2992 RMK AO1 SLP145
T10111050 11011 21028 58042





000
SAUS43 KDTX 251154
MTRP58
METAR KP58 251151Z AUTO 14017G24KT M01/M05 A2992 RMK AO1 SLP145
T10111050 11011 21028 58042





000
SAUS43 KDTX 251053
MTRP58
METAR KP58 251051Z AUTO 13015G21KT M02/M06 A2996 RMK AO1 PRESFR
SLP158 T10171056





000
SAUS43 KDTX 251053
MTRP58
METAR KP58 251051Z AUTO 13015G21KT M02/M06 A2996 RMK AO1 PRESFR
SLP158 T10171056





000
SAUS43 KDTX 250954
MTRP58
METAR KP58 250951Z AUTO 15012G19KT M02/M07 A3002 RMK AO1 SLP178
T10171067





000
SAUS43 KDTX 250854
MTRP58
METAR KP58 250851Z AUTO 15011G19KT M02/M06 A3005 RMK AO1 PRESFR
SLP188 T10171061 58041





000
SAUS43 KDTX 250854
MTRP58
METAR KP58 250851Z AUTO 15011G19KT M02/M06 A3005 RMK AO1 PRESFR
SLP188 T10171061 58041





000
SAUS43 KDTX 250753
MTRP58
METAR KP58 250751Z AUTO 15009G16KT M02/M06 A3010 RMK AO1 SLP206
T10171056





000
SAUS43 KDTX 250654
MTRP58
METAR KP58 250651Z AUTO 14008KT M02/M05 A3014 RMK AO1 SLP218
T10221050





000
SAUS43 KDTX 250654
MTRP58
METAR KP58 250651Z AUTO 14008KT M02/M05 A3014 RMK AO1 SLP218
T10221050





000
SAUS43 KDTX 250553
MTRP58
METAR KP58 250551Z AUTO 14007KT M02/M05 A3017 RMK AO1 SLP230
T10221050 11022 21033 58019





000
SAUS43 KDTX 250553
MTRP58
METAR KP58 250551Z AUTO 14007KT M02/M05 A3017 RMK AO1 SLP230
T10221050 11022 21033 58019





000
SAUS43 KDTX 250454
MTRP58
METAR KP58 250451Z AUTO 14004KT M03/M06 A3021 RMK AO1 SLP243
T10281056 410221094





000
SAUS43 KDTX 250454
MTRP58
METAR KP58 250451Z AUTO 14004KT M03/M06 A3021 RMK AO1 SLP243
T10281056 410221094





000
SAUS43 KDTX 250354
MTRP58
METAR KP58 250351Z AUTO 14005KT M03/M06 A3023 RMK AO1 SLP250
T10281056





000
SAUS43 KDTX 250257 COR
MTRP58
METAR KP58 250251Z AUTO 13007KT M03/M06 A3023 RMK AO1 SLP251
T10281056 58016





000
SAUS43 KDTX 250254 COR
MTRP58
METAR KP58 250251Z AUTO 13007KT M03/M06 A3023 RMK AO1 SLP251
T10281056 58016





000
SAUS43 KDTX 250254 COR
MTRP58
METAR KP58 250251Z AUTO 13007KT M03/M06 A3023 RMK AO1 SLP251
T10281056 58016





000
SAUS43 KDTX 250152
MTRP58
METAR KP58 250151Z AUTO 12006KT M03/M06 A3025 RMK AO1 SLP257
T10281061





000
SAUS43 KDTX 250152
MTRP58
METAR KP58 250151Z AUTO 12006KT M03/M06 A3025 RMK AO1 SLP257
T10281061





000
SAUS43 KDTX 250054
MTRP58
METAR KP58 250051Z AUTO 15005KT M03/M08 A3027 RMK AO1 SLP264
T10331083





000
SAUS43 KDTX 250054
MTRP58
METAR KP58 250051Z AUTO 15005KT M03/M08 A3027 RMK AO1 SLP264
T10331083





000
SAUS43 KDTX 242353
MTRP58
METAR KP58 242351Z AUTO 15004KT M03/M09 A3028 RMK AO1 SLP269
T10281094 11022 21033 55008





000
SAUS43 KDTX 242353
MTRP58
METAR KP58 242351Z AUTO 15004KT M03/M09 A3028 RMK AO1 SLP269
T10281094 11022 21033 55008





000
SAUS43 KDTX 242254
MTRP58
METAR KP58 242251Z AUTO 12010KT M02/M08 A3028 RMK AO1 SLP269
T10221083





000
SAUS43 KDTX 242152
MTRP58
METAR KP58 242151Z AUTO 12009KT M02/M09 A3029 RMK AO1 SLP273
T10221094





000
SAUS43 KDTX 242152
MTRP58
METAR KP58 242151Z AUTO 12009KT M02/M09 A3029 RMK AO1 SLP273
T10221094





000
SAUS43 KDTX 242054
MTRP58
METAR KP58 242051Z AUTO 11009KT M03/M09 A3030 RMK AO1 SLP277
T10281089 56019





000
SAUS43 KDTX 241953
MTRP58
METAR KP58 241951Z AUTO 09007KT M03/M11 A3032 RMK AO1 SLP283
T10281106





000
SAUS43 KDTX 241854
MTRP58
METAR KP58 241851Z AUTO 07007KT M03/M09 A3034 RMK AO1 SLP290
T10281094





000
SAUS43 KDTX 241854
MTRP58
METAR KP58 241851Z AUTO 07007KT M03/M09 A3034 RMK AO1 SLP290
T10281094





000
SAUS43 KDTX 241753
MTRP58
METAR KP58 241751Z AUTO 04006KT M02/M09 A3036 RMK AO1 SLP296
T10221094 11022 21089 57005





000
SAUS43 KDTX 241753
MTRP58
METAR KP58 241751Z AUTO 04006KT M02/M09 A3036 RMK AO1 SLP296
T10221094 11022 21089 57005





000
SAUS43 KDTX 241653
MTRP58
METAR KP58 241651Z AUTO 04005KT M03/M10 A3037 RMK AO1 SLP298
T10281100





000
SAUS43 KDTX 241653
MTRP58
METAR KP58 241651Z AUTO 04005KT M03/M10 A3037 RMK AO1 SLP298
T10281100





000
SAUS43 KDTX 241552
MTRP58
METAR KP58 241551Z AUTO 04005KT M03/M10 A3037 RMK AO1 SLP298
T10331100





000
SAUS43 KDTX 241552
MTRP58
METAR KP58 241551Z AUTO 04005KT M03/M10 A3037 RMK AO1 SLP298
T10331100





000
SAUS43 KDTX 241454
MTRP58
METAR KP58 241451Z AUTO 10003KT M04/M11 A3038 RMK AO1 SLP302
T10391106 51011





000
SAUS43 KDTX 241454
MTRP58
METAR KP58 241451Z AUTO 10003KT M04/M11 A3038 RMK AO1 SLP302
T10391106 51011





000
SAUS43 KDTX 241354
MTRP58
METAR KP58 241351Z AUTO 10004KT M04/M09 A3037 RMK AO1 SLP299
T10441094





000
SAUS43 KDTX 241354
MTRP58
METAR KP58 241351Z AUTO 10004KT M04/M09 A3037 RMK AO1 SLP299
T10441094





000
SAUS43 KDTX 241253
MTRP58
METAR KP58 241251Z AUTO 10003KT M06/M10 A3036 RMK AO1 SLP299
T10561100





000
SAUS43 KDTX 241253
MTRP58
METAR KP58 241251Z AUTO 10003KT M06/M10 A3036 RMK AO1 SLP299
T10561100





000
SAUS43 KDTX 241154
MTRP58
METAR KP58 241151Z AUTO 00000KT M09/M11 A3034 RMK AO1 SLP293
T10891111 11067 21094 53003





000
SAUS43 KDTX 241154
MTRP58
METAR KP58 241151Z AUTO 00000KT M09/M11 A3034 RMK AO1 SLP293
T10891111 11067 21094 53003





000
SAUS43 KDTX 241053
MTRP58
METAR KP58 241051Z AUTO 00000KT M09/M12 A3033 RMK AO1 SLP291
T10941117





000
SAUS43 KDTX 240954
MTRP58
METAR KP58 240951Z AUTO 00000KT M08/M11 A3033 RMK AO1 SLP290
T10831111





000
SAUS43 KDTX 240854
MTRP58
METAR KP58 240851Z AUTO 07003KT M08/M11 A3033 RMK AO1 SLP290
T10781111 51001





000
SAUS43 KDTX 240754
MTRP58
METAR KP58 240751Z AUTO 08003KT M07/M11 A3033 RMK AO1 SLP290
T10721106





000
SAUS43 KDTX 240754
MTRP58
METAR KP58 240751Z AUTO 08003KT M07/M11 A3033 RMK AO1 SLP290
T10721106





000
SAUS43 KDTX 240653
MTRP58
METAR KP58 240651Z AUTO 00000KT M07/M11 A3034 RMK AO1 SLP293
T10721111





000
SAUS43 KDTX 240653
MTRP58
METAR KP58 240651Z AUTO 00000KT M07/M11 A3034 RMK AO1 SLP293
T10721111





000
SAUS43 KDTX 240553
MTRP58
METAR KP58 240551Z AUTO 10005KT M07/M11 A3033 RMK AO1 SLP289
T10671111 11061 21072 56006





000
SAUS43 KDTX 240553
MTRP58
METAR KP58 240551Z AUTO 10005KT M07/M11 A3033 RMK AO1 SLP289
T10671111 11061 21072 56006





000
SAUS43 KDTX 240453
MTRP58
METAR KP58 240451Z AUTO 09006KT M07/M11 A3033 RMK AO1 SLP289
T10671111 410331078





000
SAUS43 KDTX 240353
MTRP58
METAR KP58 240351Z AUTO 09005KT M06/M12 A3034 RMK AO1 SLP290
T10611117





000
SAUS43 KDTX 240253
MTRP58
METAR KP58 240251Z AUTO 07005KT M07/M12 A3035 RMK AO1 SLP294
T10671117 55000





000
SAUS43 KDTX 240253
MTRP58
METAR KP58 240251Z AUTO 07005KT M07/M12 A3035 RMK AO1 SLP294
T10671117 55000





000
SAUS43 KDTX 240153
MTRP58
METAR KP58 240151Z AUTO 06007KT M07/M12 A3035 RMK AO1 SLP294
T10671122





000
SAUS43 KDTX 240153
MTRP58
METAR KP58 240151Z AUTO 06007KT M07/M12 A3035 RMK AO1 SLP294
T10671122





000
SAUS43 KDTX 240053
MTRP58
METAR KP58 240051Z AUTO 07007KT M07/M13 A3035 RMK AO1 SLP295
T10671128





000
SAUS43 KDTX 240053
MTRP58
METAR KP58 240051Z AUTO 07007KT M07/M13 A3035 RMK AO1 SLP295
T10671128





000
SAUS43 KDTX 232352
MTRP58
METAR KP58 232351Z AUTO 05007KT M07/M12 A3035 RMK AO1 SLP294
T10721122 11067 21078 56003





000
SAUS43 KDTX 232352
MTRP58
METAR KP58 232351Z AUTO 05007KT M07/M12 A3035 RMK AO1 SLP294
T10721122 11067 21078 56003





000
SAUS43 KDTX 232253
MTRP58
METAR KP58 232251Z AUTO 05007KT M07/M12 A3035 RMK AO1 SLP295
T10721122





000
SAUS43 KDTX 232253
MTRP58
METAR KP58 232251Z AUTO 05007KT M07/M12 A3035 RMK AO1 SLP295
T10721122





    US Dept of Commerce
    National Oceanic and Atmospheric Administration
    National Weather Service
    1325 East West Highway
    Silver Spring, MD 20910
    Page Author: NWS Internet Services Team
Disclaimer
Information Quality
Credits
Glossary
Privacy Policy
Freedom of Information Act (FOIA)
About Us
Career Opportunities